createdAt,value
2022-07-30T00:00:31.614Z,47.58
2022-07-30T00:03:00.119Z,47.73
2022-07-30T00:05:29.873Z,47.51
2022-07-30T00:07:58.510Z,47.44
2022-07-30T00:10:27.799Z,47.48
2022-07-30T00:12:57.298Z,47.49
2022-07-30T00:15:25.758Z,47.35
2022-07-30T00:17:54.608Z,47.52
2022-07-30T00:20:23.738Z,47.40
2022-07-30T00:22:58.094Z,47.35
2022-07-30T00:25:26.634Z,47.19
2022-07-30T00:27:55.196Z,47.41
2022-07-30T00:30:23.949Z,47.37
2022-07-30T00:32:52.644Z,47.43
2022-07-30T00:35:21.285Z,47.37
2022-07-30T00:37:49.924Z,47.67
2022-07-30T00:40:19.835Z,47.52
2022-07-30T00:42:50.663Z,47.71
2022-07-30T00:45:19.323Z,47.67
2022-07-30T00:47:47.955Z,47.67
2022-07-30T00:50:16.596Z,47.86
2022-07-30T00:52:45.122Z,47.75
2022-07-30T00:55:14.871Z,47.62
2022-07-30T00:57:44.881Z,47.68
2022-07-30T01:00:16.035Z,47.82
2022-07-30T01:02:44.667Z,47.94
2022-07-30T01:05:13.290Z,47.81
2022-07-30T01:07:41.783Z,47.87
2022-07-30T01:10:12.419Z,47.90
2022-07-30T01:12:41.014Z,47.85
2022-07-30T01:15:12.049Z,47.98
2022-07-30T01:17:40.718Z,48.10
2022-07-30T01:20:12.398Z,47.92
2022-07-30T01:22:58.998Z,48.19
2022-07-30T01:25:47.328Z,48.27
2022-07-30T01:28:18.419Z,48.19
2022-07-30T01:30:47.340Z,48.19
2022-07-30T01:33:18.921Z,48.15
2022-07-30T01:35:48.616Z,48.09
2022-07-30T01:38:17.630Z,47.93
2022-07-30T01:40:47.668Z,48.22
2022-07-30T01:43:16.743Z,48.30
2022-07-30T01:45:45.389Z,48.30
2022-07-30T01:48:15.041Z,48.29
2022-07-30T01:50:45.792Z,48.19
2022-07-30T01:53:16.913Z,48.43
2022-07-30T01:55:46.955Z,48.39
2022-07-30T01:58:15.498Z,48.40
2022-07-30T02:00:44.823Z,48.46
2022-07-30T02:03:13.566Z,48.54
2022-07-30T02:05:42.766Z,48.41
2022-07-30T02:08:15.274Z,48.44
2022-07-30T02:10:46.750Z,48.66
2022-07-30T02:13:18.917Z,48.73
2022-07-30T02:15:51.178Z,48.41
2022-07-30T02:18:23.755Z,48.60
2022-07-30T02:20:57.380Z,48.90
2022-07-30T02:23:25.921Z,48.74
2022-07-30T02:25:54.437Z,48.86
2022-07-30T02:28:24.309Z,48.76
2022-07-30T02:30:54.651Z,48.94
2022-07-30T02:33:24.868Z,49.10
2022-07-30T02:35:54.255Z,48.76
2022-07-30T02:38:25.431Z,48.95
2022-07-30T02:40:53.963Z,48.98
2022-07-30T02:43:25.241Z,48.81
2022-07-30T02:45:54.099Z,49.07
2022-07-30T02:48:34.512Z,48.90
2022-07-30T02:51:04.931Z,48.78
2022-07-30T02:53:33.408Z,48.83
2022-07-30T02:56:01.857Z,49.14
2022-07-30T02:58:31.793Z,48.93
2022-07-30T03:01:00.323Z,49.04
2022-07-30T03:03:32.039Z,49.00
2022-07-30T03:06:00.727Z,49.24
2022-07-30T03:08:29.243Z,48.91
2022-07-30T03:10:57.824Z,48.87
2022-07-30T03:13:26.422Z,48.93
2022-07-30T03:15:56.709Z,48.73
2022-07-30T03:18:25.247Z,49.20
2022-07-30T03:20:56.314Z,48.96
2022-07-30T03:23:24.825Z,49.28
2022-07-30T03:25:56.055Z,49.01
2022-07-30T03:28:24.901Z,49.20
2022-07-30T03:30:53.676Z,48.97
2022-07-30T03:33:23.661Z,48.92
2022-07-30T03:36:08.115Z,49.16
2022-07-30T03:38:38.081Z,49.07
2022-07-30T03:41:06.909Z,49.33
2022-07-30T03:43:35.518Z,49.38
2022-07-30T03:46:04.607Z,49.26
2022-07-30T03:48:34.933Z,49.08
2022-07-30T03:51:04.316Z,49.36
2022-07-30T03:53:33.026Z,49.23
2022-07-30T03:56:01.614Z,49.41
2022-07-30T03:58:30.561Z,49.22
2022-07-30T04:01:04.881Z,49.49
2022-07-30T04:03:35.120Z,49.50
2022-07-30T04:06:03.588Z,49.48
2022-07-30T04:08:32.062Z,49.55
2022-07-30T04:11:00.765Z,49.59
2022-07-30T04:13:29.216Z,49.56
2022-07-30T04:16:38.391Z,49.44
2022-07-30T04:18:54.776Z,49.29
2022-07-30T04:21:24.286Z,49.10
2022-07-30T04:24:03.872Z,49.19
2022-07-30T04:26:36.536Z,49.13
2022-07-30T04:29:07.220Z,49.24
2022-07-30T04:31:40.217Z,49.22
2022-07-30T04:34:14.341Z,49.31
2022-07-30T04:36:43.327Z,49.63
2022-07-30T04:39:12.045Z,49.15
2022-07-30T04:41:48.362Z,49.38
2022-07-30T04:44:20.032Z,49.24
2022-07-30T04:46:48.667Z,49.20
2022-07-30T04:49:19.146Z,49.40
2022-07-30T04:51:47.945Z,49.26
2022-07-30T04:54:16.445Z,49.28
2022-07-30T04:56:53.144Z,49.25
2022-07-30T04:59:25.433Z,49.30
2022-07-30T05:01:54.010Z,49.49
2022-07-30T05:04:25.097Z,49.44
2022-07-30T05:06:53.796Z,49.80
2022-07-30T05:09:22.250Z,49.70
2022-07-30T05:11:54.216Z,49.61
2022-07-30T05:14:23.102Z,49.86
2022-07-30T05:16:51.584Z,49.65
2022-07-30T05:19:20.179Z,49.76
2022-07-30T05:21:50.089Z,49.71
2022-07-30T05:24:18.559Z,50.12
2022-07-30T05:26:47.052Z,49.79
2022-07-30T05:29:19.663Z,49.96
2022-07-30T05:31:49.537Z,49.70
2022-07-30T05:34:18.230Z,49.98
2022-07-30T05:36:46.682Z,49.75
2022-07-30T05:39:17.450Z,50.02
2022-07-30T05:41:45.892Z,50.04
2022-07-30T05:44:14.446Z,49.94
2022-07-30T05:46:42.984Z,49.79
2022-07-30T05:49:11.576Z,50.07
2022-07-30T05:51:40.375Z,50.04
2022-07-30T05:54:09.746Z,50.05
2022-07-30T05:56:41.036Z,50.12
2022-07-30T05:59:09.645Z,49.86
2022-07-30T06:01:38.270Z,50.02
2022-07-30T06:04:06.914Z,50.02
2022-07-30T06:06:35.348Z,50.05
2022-07-30T06:09:04.043Z,49.98
2022-07-30T06:11:32.527Z,49.97
2022-07-30T06:14:02.450Z,50.28
2022-07-30T06:16:31.052Z,49.93
2022-07-30T06:18:59.506Z,50.21
2022-07-30T06:21:27.968Z,50.00
2022-07-30T06:24:16.440Z,50.30
2022-07-30T06:26:44.928Z,50.09
2022-07-30T06:29:14.860Z,50.33
2022-07-30T06:31:43.452Z,50.16
2022-07-30T06:34:11.981Z,50.15
2022-07-30T06:36:40.615Z,50.20
2022-07-30T06:39:09.220Z,50.07
2022-07-30T06:41:37.753Z,50.07
2022-07-30T06:44:06.441Z,50.33
2022-07-30T06:46:36.937Z,50.42
2022-07-30T06:49:05.810Z,50.63
2022-07-30T06:51:34.703Z,50.26
2022-07-30T06:54:03.745Z,50.42
2022-07-30T06:56:32.322Z,50.53
2022-07-30T06:59:00.911Z,50.54
2022-07-30T07:01:29.355Z,50.47
2022-07-30T07:03:59.350Z,50.42
2022-07-30T07:06:27.869Z,50.66
2022-07-30T07:08:56.343Z,50.35
2022-07-30T07:11:25.550Z,50.74
2022-07-30T07:13:54.038Z,50.63
2022-07-30T07:16:25.474Z,50.69
2022-07-30T07:18:53.956Z,50.50
2022-07-30T07:21:23.719Z,50.61
2022-07-30T07:23:52.160Z,50.80
2022-07-30T07:26:20.590Z,50.80
2022-07-30T07:28:49.971Z,50.46
2022-07-30T07:32:07.155Z,50.38
2022-07-30T07:34:07.020Z,50.59
2022-07-30T07:36:36.853Z,50.46
2022-07-30T07:39:09.735Z,50.42
2022-07-30T07:41:48.792Z,50.52
2022-07-30T07:44:17.963Z,50.69
2022-07-30T07:46:46.443Z,50.69
2022-07-30T07:49:15.080Z,51.42
2022-07-30T07:51:48.364Z,50.69
2022-07-30T07:54:24.114Z,51.34
2022-07-30T07:56:53.438Z,51.28
2022-07-30T07:59:21.938Z,50.73
2022-07-30T08:01:51.412Z,51.27
2022-07-30T08:04:19.949Z,50.74
2022-07-30T08:06:49.926Z,50.66
2022-07-30T08:09:18.342Z,50.71
2022-07-30T08:11:48.022Z,50.54
2022-07-30T08:14:16.416Z,50.83
2022-07-30T08:16:44.886Z,51.04
2022-07-30T08:19:13.362Z,51.55
2022-07-30T08:21:41.816Z,51.20
2022-07-30T08:24:11.620Z,51.36
2022-07-30T08:26:40.170Z,51.71
2022-07-30T08:29:08.660Z,51.39
2022-07-30T08:31:37.129Z,50.83
2022-07-30T08:34:05.789Z,50.67
2022-07-30T08:36:34.234Z,51.16
2022-07-30T08:39:02.715Z,50.49
2022-07-30T08:41:32.611Z,50.96
2022-07-30T08:46:32.964Z,51.11
2022-07-30T08:49:09.226Z,51.29
2022-07-30T08:51:40.239Z,51.21
2022-07-30T08:54:08.764Z,51.11
2022-07-30T08:56:38.762Z,51.48
2022-07-30T08:59:07.293Z,51.63
2022-07-30T09:01:35.867Z,51.27
2022-07-30T09:06:34.193Z,51.28
2022-07-30T09:09:05.493Z,51.17
2022-07-30T09:11:35.904Z,51.46
2022-07-30T09:14:11.070Z,51.09
2022-07-30T09:16:39.926Z,50.64
2022-07-30T09:19:16.527Z,50.98
2022-07-30T09:21:56.363Z,51.04
2022-07-30T09:24:24.935Z,51.21
2022-07-30T09:26:57.156Z,51.25
2022-07-30T09:29:28.145Z,51.26
2022-07-30T09:31:58.124Z,50.97
2022-07-30T09:34:31.990Z,50.89
2022-07-30T09:37:02.260Z,50.83
2022-07-30T09:39:34.900Z,50.66
2022-07-30T09:42:04.425Z,51.01
2022-07-30T09:44:34.426Z,51.24
2022-07-30T09:47:03.203Z,51.23
2022-07-30T09:49:32.956Z,52.40
2022-07-30T09:52:01.480Z,51.65
2022-07-30T09:54:50.966Z,51.39
2022-07-30T09:57:25.972Z,51.15
2022-07-30T09:59:59.853Z,51.04
2022-07-30T10:02:31.924Z,50.57
2022-07-30T10:05:13.848Z,50.29
2022-07-30T10:07:51.486Z,50.62
2022-07-30T10:10:25.267Z,50.53
2022-07-30T10:12:58.205Z,51.02
2022-07-30T10:15:32.526Z,51.03
2022-07-30T10:18:01.699Z,51.07
2022-07-30T10:20:30.165Z,51.13
2022-07-30T10:23:07.818Z,50.88
2022-07-30T10:25:49.656Z,50.91
2022-07-30T10:28:24.481Z,50.87
2022-07-30T10:30:55.891Z,51.18
2022-07-30T10:33:36.688Z,52.04
2022-07-30T10:36:11.734Z,52.46
2022-07-30T10:38:41.635Z,52.54
2022-07-30T10:41:42.225Z,52.06
2022-07-30T10:44:23.538Z,52.43
2022-07-30T10:47:01.302Z,52.24
2022-07-30T10:49:41.401Z,52.01
2022-07-30T10:52:12.389Z,52.03
2022-07-30T10:54:43.165Z,51.99
2022-07-30T10:57:32.456Z,51.47
2022-07-30T11:00:15.240Z,52.17
2022-07-30T11:03:41.558Z,51.89
2022-07-30T11:06:26.963Z,52.29
2022-07-30T11:08:57.145Z,52.09
2022-07-30T11:12:15.750Z,52.30
2022-07-30T11:15:17.413Z,52.20
2022-07-30T11:18:12.492Z,52.54
2022-07-30T11:20:48.863Z,52.02
2022-07-30T11:23:40.635Z,51.99
2022-07-30T11:26:14.405Z,53.86
2022-07-30T11:28:44.815Z,53.13
2022-07-30T11:31:36.918Z,53.76
2022-07-30T11:34:30.769Z,54.54
2022-07-30T11:37:31.904Z,54.90
2022-07-30T11:40:14.578Z,55.50
2022-07-30T11:42:43.806Z,55.88
2022-07-30T11:45:29.883Z,55.10
2022-07-30T11:48:01.202Z,55.40
2022-07-30T11:50:34.041Z,55.40
2022-07-30T11:53:06.810Z,55.80
2022-07-30T11:55:37.477Z,56.02
2022-07-30T11:58:07.925Z,56.12
2022-07-30T12:00:39.144Z,56.60
2022-07-30T12:03:12.763Z,56.54
2022-07-30T12:05:41.409Z,56.24
2022-07-30T12:08:35.406Z,56.30
2022-07-30T12:11:01.754Z,55.87
2022-07-30T12:13:42.847Z,55.97
2022-07-30T12:16:16.052Z,57.52
2022-07-30T12:18:45.185Z,57.93
2022-07-30T12:21:16.327Z,57.58
2022-07-30T12:23:55.724Z,56.57
2022-07-30T12:26:26.750Z,56.78
2022-07-30T12:28:56.390Z,57.23
2022-07-30T12:31:24.909Z,57.03
2022-07-30T12:33:53.491Z,56.93
2022-07-30T12:36:30.907Z,57.00
2022-07-30T12:39:01.127Z,57.29
2022-07-30T12:41:45.529Z,57.61
2022-07-30T12:44:39.003Z,57.97
2022-07-30T12:47:20.254Z,58.37
2022-07-30T12:49:50.085Z,58.50
2022-07-30T12:52:28.660Z,58.38
2022-07-30T12:55:09.935Z,59.30
2022-07-30T12:57:58.297Z,58.89
2022-07-30T13:00:28.192Z,59.37
2022-07-30T13:02:56.783Z,58.89
2022-07-30T13:05:48.510Z,58.62
2022-07-30T13:08:16.978Z,58.15
2022-07-30T13:11:00.826Z,58.36
2022-07-30T13:13:29.357Z,58.92
2022-07-30T13:16:00.888Z,59.25
2022-07-30T13:18:30.005Z,59.06
2022-07-30T13:20:58.708Z,59.48
2022-07-30T13:23:27.601Z,59.55
2022-07-30T13:25:56.050Z,58.97
2022-07-30T13:28:26.036Z,59.14
2022-07-30T13:30:54.479Z,59.19
2022-07-30T13:33:22.893Z,59.04
2022-07-30T13:35:51.313Z,59.50
2022-07-30T13:38:19.729Z,59.00
2022-07-30T13:40:48.653Z,58.66
2022-07-30T13:43:17.247Z,58.76
2022-07-30T13:45:47.158Z,58.35
2022-07-30T13:48:15.630Z,58.24
2022-07-30T13:50:44.791Z,58.53
2022-07-30T13:53:13.257Z,58.24
2022-07-30T13:55:42.603Z,58.29
2022-07-30T13:58:11.158Z,58.37
2022-07-30T14:00:40.456Z,58.65
2022-07-30T14:03:11.176Z,58.12
2022-07-30T14:05:42.257Z,58.53
2022-07-30T14:08:11.944Z,58.48
2022-07-30T14:10:40.822Z,58.63
2022-07-30T14:13:11.781Z,58.37
2022-07-30T14:15:49.893Z,58.50
2022-07-30T14:18:19.716Z,58.92
2022-07-30T14:20:49.463Z,58.78
2022-07-30T14:23:18.088Z,58.75
2022-07-30T14:25:46.733Z,58.63
2022-07-30T14:28:15.243Z,58.44
2022-07-30T14:30:43.824Z,59.14
2022-07-30T14:33:12.324Z,58.63
2022-07-30T14:35:42.366Z,59.02
2022-07-30T14:38:10.837Z,59.04
2022-07-30T14:40:39.284Z,59.22
2022-07-30T14:43:07.704Z,59.14
2022-07-30T14:45:37.577Z,59.18
2022-07-30T14:48:06.774Z,58.69
2022-07-30T14:50:46.698Z,58.76
2022-07-30T14:53:25.738Z,58.41
2022-07-30T14:55:54.192Z,58.06
2022-07-30T14:58:22.656Z,58.27
2022-07-30T15:00:51.646Z,58.13
2022-07-30T15:03:20.212Z,58.39
2022-07-30T15:05:52.427Z,59.08
2022-07-30T15:08:21.783Z,59.42
2022-07-30T15:10:51.578Z,59.04
2022-07-30T15:13:19.983Z,58.41
2022-07-30T15:15:50.454Z,58.15
2022-07-30T15:18:18.891Z,57.78
2022-07-30T15:20:47.366Z,58.32
2022-07-30T15:23:15.890Z,57.69
2022-07-30T15:25:45.656Z,57.81
2022-07-30T15:28:15.561Z,57.54
2022-07-30T15:30:44.574Z,57.26
2022-07-30T15:33:13.066Z,57.60
2022-07-30T15:35:41.514Z,57.51
2022-07-30T15:38:10.045Z,57.30
2022-07-30T15:40:38.476Z,57.12
2022-07-30T15:43:10.083Z,57.74
2022-07-30T15:45:50.059Z,57.96
2022-07-30T15:48:27.368Z,58.02
2022-07-30T15:51:01.651Z,58.05
2022-07-30T15:53:31.262Z,58.67
2022-07-30T15:55:59.707Z,59.72
2022-07-30T15:58:28.271Z,59.60
2022-07-30T16:00:58.182Z,58.94
2022-07-30T16:03:26.796Z,59.36
2022-07-30T16:05:55.254Z,59.65
2022-07-30T16:08:23.997Z,59.20
2022-07-30T16:10:53.021Z,59.80
2022-07-30T16:13:21.486Z,60.06
2022-07-30T16:15:50.002Z,59.69
2022-07-30T16:18:19.753Z,59.81
2022-07-30T16:20:48.379Z,60.66
2022-07-30T16:23:21.126Z,60.76
2022-07-30T16:25:50.295Z,60.53
2022-07-30T16:28:26.520Z,60.77
2022-07-30T16:30:55.243Z,60.64
2022-07-30T16:33:25.266Z,61.21
2022-07-30T16:35:53.873Z,61.07
2022-07-30T16:38:23.377Z,60.42
2022-07-30T16:40:52.037Z,60.62
2022-07-30T16:43:20.698Z,59.96
2022-07-30T16:45:49.241Z,60.04
2022-07-30T16:48:17.805Z,59.94
2022-07-30T16:50:47.668Z,60.00
2022-07-30T16:53:16.367Z,60.79
2022-07-30T16:55:46.588Z,60.91
2022-07-30T16:58:15.086Z,60.82
2022-07-30T17:00:43.828Z,59.81
2022-07-30T17:03:20.159Z,59.39
2022-07-30T17:05:50.314Z,59.64
2022-07-30T17:08:19.177Z,60.15
2022-07-30T17:10:53.755Z,59.42
2022-07-30T17:13:22.444Z,59.40
2022-07-30T17:15:51.104Z,59.60
2022-07-30T17:18:21.797Z,60.33
2022-07-30T17:20:51.695Z,59.42
2022-07-30T17:23:20.149Z,59.33
2022-07-30T17:25:49.165Z,59.24
2022-07-30T17:28:19.574Z,58.97
2022-07-30T17:30:54.480Z,59.52
2022-07-30T17:33:22.996Z,59.50
2022-07-30T17:35:52.924Z,59.35
2022-07-30T17:38:21.479Z,58.63
2022-07-30T17:40:50.021Z,58.66
2022-07-30T17:43:18.674Z,58.84
2022-07-30T17:45:47.208Z,58.28
2022-07-30T17:48:15.849Z,57.34
2022-07-30T17:50:44.321Z,56.98
2022-07-30T17:53:16.057Z,56.67
2022-07-30T17:55:57.424Z,56.38
2022-07-30T17:58:27.017Z,56.66
2022-07-30T18:00:55.916Z,56.48
2022-07-30T18:03:24.446Z,56.37
2022-07-30T18:05:53.421Z,56.77
2022-07-30T18:08:23.220Z,56.79
2022-07-30T18:10:51.905Z,56.76
2022-07-30T18:13:25.876Z,56.68
2022-07-30T18:15:55.752Z,56.38
2022-07-30T18:18:24.534Z,56.35
2022-07-30T18:20:53.019Z,56.59
2022-07-30T18:23:22.879Z,56.87
2022-07-30T18:25:54.341Z,56.60
2022-07-30T18:28:23.116Z,56.24
2022-07-30T18:30:51.649Z,56.19
2022-07-30T18:33:20.098Z,55.90
2022-07-30T18:35:49.254Z,55.92
2022-07-30T18:38:17.768Z,56.16
2022-07-30T18:40:57.719Z,56.68
2022-07-30T18:43:26.848Z,56.54
2022-07-30T18:45:55.411Z,56.60
2022-07-30T18:48:23.862Z,56.21
2022-07-30T18:50:52.962Z,55.86
2022-07-30T18:53:21.471Z,56.16
2022-07-30T18:55:51.914Z,55.81
2022-07-30T18:58:20.390Z,55.66
2022-07-30T19:00:48.897Z,55.71
2022-07-30T19:03:22.672Z,55.64
2022-07-30T19:05:51.670Z,55.33
2022-07-30T19:08:20.164Z,55.50
2022-07-30T19:10:48.763Z,55.71
2022-07-30T19:13:18.578Z,55.67
2022-07-30T19:15:47.028Z,55.68
2022-07-30T19:18:15.448Z,55.75
2022-07-30T19:20:44.521Z,55.53
2022-07-30T19:23:13.776Z,55.37
2022-07-30T19:25:42.296Z,55.34
2022-07-30T19:28:13.503Z,55.42
2022-07-30T19:30:43.483Z,55.35
2022-07-30T19:33:15.494Z,55.40
2022-07-30T19:35:44.332Z,55.30
2022-07-30T19:38:21.995Z,55.30
2022-07-30T19:41:01.240Z,55.20
2022-07-30T19:43:33.559Z,55.17
2022-07-30T19:46:03.673Z,54.88
2022-07-30T19:48:32.510Z,55.02
2022-07-30T19:51:01.384Z,54.88
2022-07-30T19:53:31.605Z,54.85
2022-07-30T19:56:08.227Z,54.70
2022-07-30T19:58:40.046Z,54.82
2022-07-30T20:01:12.326Z,54.84
2022-07-30T20:03:41.087Z,54.91
2022-07-30T20:06:14.458Z,54.74
2022-07-30T20:08:44.758Z,55.04
2022-07-30T20:11:20.764Z,55.16
2022-07-30T20:14:02.116Z,54.66
2022-07-30T20:16:31.948Z,54.76
2022-07-30T20:19:00.400Z,55.39
2022-07-30T20:21:56.101Z,54.93
2022-07-30T20:24:20.106Z,54.67
2022-07-30T20:26:49.481Z,54.48
2022-07-30T20:29:19.376Z,55.00
2022-07-30T20:31:50.491Z,54.28
2022-07-30T20:34:23.325Z,54.69
2022-07-30T20:36:52.095Z,54.27
2022-07-30T20:39:23.679Z,54.60
2022-07-30T20:42:07.620Z,54.11
2022-07-30T20:44:37.548Z,54.71
2022-07-30T20:47:08.115Z,54.25
2022-07-30T20:49:37.243Z,54.13
2022-07-30T20:52:06.970Z,54.33
2022-07-30T20:54:35.613Z,53.96
2022-07-30T20:57:06.434Z,53.91
2022-07-30T20:59:35.643Z,53.93
2022-07-30T21:02:04.577Z,54.32
2022-07-30T21:04:36.220Z,53.82
2022-07-30T21:07:05.192Z,54.01
2022-07-30T21:09:52.250Z,53.70
2022-07-30T21:12:33.005Z,54.24
2022-07-30T21:15:01.708Z,54.27
2022-07-30T21:17:30.152Z,53.81
2022-07-30T21:20:00.125Z,53.54
2022-07-30T21:22:29.630Z,53.79
2022-07-30T21:24:58.304Z,53.66
2022-07-30T21:27:30.056Z,53.87
2022-07-30T21:29:58.624Z,53.52
2022-07-30T21:32:28.434Z,53.53
2022-07-30T21:34:56.882Z,53.71
2022-07-30T21:37:27.114Z,53.41
2022-07-30T21:40:06.957Z,53.60
2022-07-30T21:42:37.306Z,53.34
2022-07-30T21:45:17.322Z,53.30
2022-07-30T21:47:47.605Z,53.28
2022-07-30T21:50:16.692Z,53.24
2022-07-30T21:52:46.651Z,53.44
2022-07-30T21:55:15.211Z,53.42
2022-07-30T21:57:43.715Z,53.29
2022-07-30T22:00:18.807Z,53.16
2022-07-30T22:02:53.124Z,53.50
2022-07-30T22:05:38.297Z,53.29
2022-07-30T22:08:09.574Z,53.35
2022-07-30T22:10:39.159Z,53.25
2022-07-30T22:13:10.295Z,53.34
2022-07-30T22:15:39.030Z,53.28
2022-07-30T22:18:08.689Z,52.99
2022-07-30T22:20:37.883Z,53.24
2022-07-30T22:23:09.203Z,53.19
2022-07-30T22:25:39.619Z,53.13
2022-07-30T22:28:12.738Z,53.22
2022-07-30T22:30:42.006Z,53.04
2022-07-30T22:33:13.214Z,53.06
2022-07-30T22:35:46.672Z,52.91
2022-07-30T22:38:19.874Z,52.94
2022-07-30T22:40:49.541Z,52.86
2022-07-30T22:43:18.025Z,52.74
2022-07-30T22:45:48.377Z,52.81
2022-07-30T22:48:20.742Z,52.69
2022-07-30T22:50:56.805Z,52.65
2022-07-30T22:54:10.824Z,53.01
2022-07-30T22:56:20.256Z,52.41
2022-07-30T22:58:53.107Z,52.68
2022-07-30T23:01:21.576Z,52.74
2022-07-30T23:03:51.431Z,52.61
2022-07-30T23:06:20.658Z,52.57
2022-07-30T23:08:51.424Z,52.77
2022-07-30T23:11:21.580Z,52.77
2022-07-30T23:13:53.844Z,52.25
2022-07-30T23:16:22.764Z,52.36
2022-07-30T23:18:51.300Z,52.76
2022-07-30T23:21:19.763Z,52.74
2022-07-30T23:23:48.349Z,52.21
2022-07-30T23:26:18.195Z,52.40
2022-07-30T23:28:47.346Z,52.28
2022-07-30T23:31:15.801Z,52.29
2022-07-30T23:33:44.258Z,52.12
2022-07-30T23:36:12.650Z,52.10
2022-07-30T23:38:41.085Z,52.40
2022-07-30T23:41:09.503Z,52.35
2022-07-30T23:43:39.836Z,52.28
2022-07-30T23:46:11.012Z,52.19
2022-07-30T23:48:40.139Z,52.26
2022-07-30T23:51:08.553Z,52.09
2022-07-30T23:53:36.983Z,52.21
2022-07-30T23:56:05.925Z,52.21
2022-07-30T23:58:34.366Z,52.18
